createdAt,value
2019-03-13T00:00:39.853Z,70.06
2019-03-13T00:03:11.055Z,70.43
2019-03-13T00:05:41.923Z,69.46
2019-03-13T00:08:12.698Z,69.61
2019-03-13T00:10:43.748Z,69.90
2019-03-13T00:13:14.931Z,69.82
2019-03-13T00:15:49.472Z,69.91
2019-03-13T00:18:19.189Z,69.27
2019-03-13T00:20:49.991Z,69.31
2019-03-13T00:23:20.816Z,69.04
2019-03-13T00:25:51.800Z,69.02
2019-03-13T00:28:22.853Z,69.84
2019-03-13T00:30:55.246Z,69.39
2019-03-13T00:33:25.860Z,69.71
2019-03-13T00:35:56.673Z,69.83
2019-03-13T00:38:27.145Z,69.65
2019-03-13T00:40:58.382Z,69.62
2019-03-13T00:43:29.220Z,69.57
2019-03-13T00:46:00.924Z,69.05
2019-03-13T00:48:31.853Z,69.51
2019-03-13T00:51:02.617Z,69.61
2019-03-13T00:53:33.472Z,69.82
2019-03-13T00:56:04.435Z,70.06
2019-03-13T00:58:35.723Z,69.94
2019-03-13T01:01:08.358Z,70.19
2019-03-13T01:03:40.374Z,69.87
2019-03-13T01:06:12.644Z,70.34
2019-03-13T01:08:43.605Z,70.49
2019-03-13T01:11:14.720Z,70.45
2019-03-13T01:13:45.527Z,70.39
2019-03-13T01:16:16.400Z,70.74
2019-03-13T01:18:47.538Z,70.52
2019-03-13T01:21:18.331Z,70.18
2019-03-13T01:23:49.072Z,70.13
2019-03-13T01:26:20.197Z,70.67
2019-03-13T01:28:51.559Z,70.59
2019-03-13T01:31:24.441Z,70.09
2019-03-13T01:33:56.749Z,70.49
2019-03-13T01:36:27.388Z,70.04
2019-03-13T01:38:58.399Z,69.68
2019-03-13T01:41:29.568Z,70.00
2019-03-13T01:44:03.524Z,69.60
2019-03-13T01:46:34.760Z,69.52
2019-03-13T01:49:05.645Z,69.13
2019-03-13T01:51:36.516Z,69.06
2019-03-13T01:54:07.318Z,69.06
2019-03-13T01:56:38.699Z,69.32
2019-03-13T01:59:09.717Z,68.92
2019-03-13T02:01:40.787Z,69.59
2019-03-13T02:04:11.752Z,68.25
2019-03-13T02:06:42.820Z,68.84
2019-03-13T02:09:13.920Z,68.67
2019-03-13T02:11:44.959Z,68.42
2019-03-13T02:14:16.929Z,68.42
2019-03-13T02:16:48.002Z,68.85
2019-03-13T02:19:18.842Z,68.09
2019-03-13T02:21:49.655Z,68.49
2019-03-13T02:24:20.519Z,68.33
2019-03-13T02:26:51.514Z,68.67
2019-03-13T02:29:22.593Z,67.86
2019-03-13T02:31:53.379Z,67.93
2019-03-13T02:34:24.100Z,67.63
2019-03-13T02:36:55.272Z,67.59
2019-03-13T02:39:26.465Z,67.66
2019-03-13T02:41:57.302Z,67.88
2019-03-13T02:44:28.266Z,67.63
2019-03-13T02:46:59.277Z,67.55
2019-03-13T02:49:30.494Z,67.92
2019-03-13T02:52:01.669Z,67.83
2019-03-13T02:54:32.514Z,67.48
2019-03-13T02:57:03.823Z,67.65
2019-03-13T02:59:34.816Z,67.37
2019-03-13T03:02:07.166Z,67.49
2019-03-13T03:04:38.415Z,67.32
2019-03-13T03:07:12.714Z,66.89
2019-03-13T03:09:42.015Z,66.74
2019-03-13T03:12:12.826Z,67.17
2019-03-13T03:14:47.220Z,66.98
2019-03-13T03:17:18.112Z,67.22
2019-03-13T03:19:48.828Z,66.62
2019-03-13T03:22:19.817Z,66.42
2019-03-13T03:24:51.046Z,66.67
2019-03-13T03:27:21.904Z,66.35
2019-03-13T03:29:52.724Z,66.69
2019-03-13T03:32:23.883Z,66.71
2019-03-13T03:34:54.941Z,66.28
2019-03-13T03:37:25.920Z,66.43
2019-03-13T03:39:56.769Z,66.20
2019-03-13T03:42:27.854Z,66.24
2019-03-13T03:44:58.682Z,66.50
2019-03-13T03:47:29.799Z,66.28
2019-03-13T03:50:00.812Z,65.80
2019-03-13T03:52:31.523Z,65.85
2019-03-13T03:55:02.722Z,66.36
2019-03-13T03:57:33.881Z,66.75
2019-03-13T04:00:07.813Z,66.16
2019-03-13T04:02:38.922Z,65.96
2019-03-13T04:05:10.156Z,66.24
2019-03-13T04:07:41.208Z,66.11
2019-03-13T04:10:13.327Z,66.17
2019-03-13T04:12:44.103Z,66.20
2019-03-13T04:15:15.931Z,65.25
2019-03-13T04:17:46.688Z,65.94
2019-03-13T04:20:18.437Z,65.72
2019-03-13T04:22:49.448Z,65.09
2019-03-13T04:25:19.959Z,65.68
2019-03-13T04:27:50.886Z,65.32
2019-03-13T04:30:21.749Z,65.07
2019-03-13T04:32:52.716Z,65.24
2019-03-13T04:35:24.542Z,64.32
2019-03-13T04:37:55.678Z,64.49
2019-03-13T04:40:26.656Z,64.34
2019-03-13T04:42:58.136Z,64.73
2019-03-13T04:45:29.792Z,64.19
2019-03-13T04:48:01.061Z,63.95
2019-03-13T04:50:31.917Z,64.00
2019-03-13T04:53:02.860Z,65.37
2019-03-13T04:55:34.137Z,65.76
2019-03-13T04:58:05.687Z,66.04
2019-03-13T05:00:36.493Z,66.76
2019-03-13T05:03:07.973Z,67.60
2019-03-13T05:05:41.941Z,68.85
2019-03-13T05:08:17.561Z,69.05
2019-03-13T05:10:48.696Z,69.19
2019-03-13T05:13:19.956Z,70.54
2019-03-13T05:15:54.563Z,70.42
2019-03-13T05:18:25.418Z,71.47
2019-03-13T05:20:56.323Z,71.39
2019-03-13T05:23:28.096Z,71.94
2019-03-13T05:25:59.105Z,72.62
2019-03-13T05:28:30.027Z,72.72
2019-03-13T05:31:01.095Z,73.59
2019-03-13T05:33:32.226Z,73.20
2019-03-13T05:36:03.111Z,72.54
2019-03-13T05:38:34.036Z,73.15
2019-03-13T05:41:04.776Z,74.77
2019-03-13T05:43:35.595Z,74.36
2019-03-13T05:46:07.182Z,76.74
2019-03-13T05:48:38.130Z,78.15
2019-03-13T05:51:09.266Z,80.31
2019-03-13T05:53:40.096Z,80.96
2019-03-13T05:56:11.536Z,82.38
2019-03-13T05:58:42.920Z,82.71
2019-03-13T06:01:13.735Z,83.48
2019-03-13T06:03:44.990Z,84.24
2019-03-13T06:06:16.125Z,84.36
2019-03-13T06:08:47.654Z,84.64
2019-03-13T06:11:18.856Z,84.86
2019-03-13T06:13:50.107Z,85.32
2019-03-13T06:16:20.786Z,85.91
2019-03-13T06:18:52.886Z,85.87
2019-03-13T06:21:24.230Z,86.38
2019-03-13T06:23:55.207Z,86.36
2019-03-13T06:26:26.060Z,86.69
2019-03-13T06:28:57.221Z,87.00
2019-03-13T06:31:28.268Z,86.90
2019-03-13T06:33:59.582Z,86.88
2019-03-13T06:36:30.363Z,87.09
2019-03-13T06:39:01.732Z,87.09
2019-03-13T06:41:33.383Z,86.43
2019-03-13T06:44:04.584Z,85.85
2019-03-13T06:46:35.808Z,86.47
2019-03-13T06:49:06.861Z,86.25
2019-03-13T06:51:38.809Z,85.69
2019-03-13T06:54:09.784Z,85.25
2019-03-13T06:56:40.698Z,85.04
2019-03-13T06:59:13.763Z,84.49
2019-03-13T07:01:47.073Z,85.31
2019-03-13T07:04:21.194Z,86.25
2019-03-13T07:06:54.054Z,86.74
2019-03-13T07:09:26.368Z,86.59
2019-03-13T07:11:58.741Z,86.17
2019-03-13T07:14:31.117Z,85.47
2019-03-13T07:17:03.715Z,85.99
2019-03-13T07:19:36.900Z,85.28
2019-03-13T07:22:09.725Z,85.16
2019-03-13T07:24:42.422Z,85.33
2019-03-13T07:27:16.414Z,84.68
2019-03-13T07:29:47.379Z,84.35
2019-03-13T07:32:20.317Z,84.49
2019-03-13T07:34:54.764Z,83.92
2019-03-13T07:37:27.977Z,84.05
2019-03-13T07:40:00.395Z,84.05
2019-03-13T07:42:32.947Z,83.98
2019-03-13T07:45:08.133Z,83.60
2019-03-13T07:47:40.535Z,82.49
2019-03-13T07:50:12.542Z,82.63
2019-03-13T07:52:45.144Z,82.39
2019-03-13T07:55:16.002Z,81.73
2019-03-13T07:57:46.477Z,81.12
2019-03-13T08:00:18.776Z,81.07
2019-03-13T08:02:50.869Z,80.92
2019-03-13T08:05:23.438Z,80.82
2019-03-13T08:07:55.601Z,80.69
2019-03-13T08:10:28.191Z,80.24
2019-03-13T08:13:00.320Z,80.40
2019-03-13T08:15:30.618Z,79.43
2019-03-13T08:18:02.819Z,79.63
2019-03-13T08:20:33.345Z,79.65
2019-03-13T08:23:05.418Z,78.53
2019-03-13T08:25:37.459Z,78.04
2019-03-13T08:28:09.479Z,76.94
2019-03-13T08:30:41.648Z,77.15
2019-03-13T08:33:13.891Z,76.21
2019-03-13T08:35:46.238Z,75.47
2019-03-13T08:38:18.498Z,74.57
2019-03-13T08:40:50.499Z,74.06
2019-03-13T08:43:22.770Z,72.87
2019-03-13T08:45:54.879Z,73.05
2019-03-13T08:48:27.008Z,70.86
2019-03-13T08:50:59.148Z,71.55
2019-03-13T08:53:32.654Z,70.26
2019-03-13T08:56:06.138Z,70.49
2019-03-13T08:58:38.134Z,71.01
2019-03-13T09:01:10.279Z,69.02
2019-03-13T09:03:42.380Z,68.09
2019-03-13T09:06:14.719Z,64.38
2019-03-13T09:08:44.884Z,62.55
2019-03-13T09:11:17.102Z,61.00
2019-03-13T09:13:49.265Z,60.13
2019-03-13T09:16:21.461Z,58.10
2019-03-13T09:18:54.941Z,59.17
2019-03-13T09:21:27.332Z,58.77
2019-03-13T09:23:59.495Z,59.40
2019-03-13T09:26:32.062Z,59.91
2019-03-13T09:29:04.672Z,58.38
2019-03-13T09:31:37.300Z,58.18
2019-03-13T09:34:10.690Z,58.31
2019-03-13T09:36:43.550Z,58.02
2019-03-13T09:39:14.284Z,58.09
2019-03-13T09:41:47.517Z,58.45
2019-03-13T09:44:20.868Z,58.58
2019-03-13T09:46:53.518Z,58.85
2019-03-13T09:49:26.055Z,58.92
2019-03-13T09:51:58.700Z,58.58
2019-03-13T09:54:31.334Z,59.62
2019-03-13T09:57:04.020Z,57.98
2019-03-13T09:59:43.383Z,58.99
2019-03-13T10:02:11.520Z,60.28
2019-03-13T10:04:44.166Z,59.03
2019-03-13T10:07:16.928Z,58.44
2019-03-13T10:09:49.492Z,58.42
2019-03-13T10:12:22.187Z,58.52
2019-03-13T10:14:55.146Z,56.75
2019-03-13T10:17:27.753Z,56.32
2019-03-13T10:20:00.970Z,56.02
2019-03-13T10:22:33.614Z,55.42
2019-03-13T10:25:07.742Z,55.96
2019-03-13T10:27:40.869Z,55.02
2019-03-13T10:30:15.608Z,54.38
2019-03-13T10:32:48.551Z,53.68
2019-03-13T10:35:21.415Z,54.81
2019-03-13T10:37:54.745Z,55.25
2019-03-13T10:40:28.515Z,54.39
2019-03-13T10:43:01.856Z,55.17
2019-03-13T10:45:32.827Z,55.31
2019-03-13T10:48:05.582Z,53.40
2019-03-13T10:50:38.400Z,55.41
2019-03-13T10:53:11.352Z,55.42
2019-03-13T10:55:43.919Z,55.16
2019-03-13T10:58:16.431Z,55.63
2019-03-13T11:00:48.906Z,54.97
2019-03-13T11:03:21.553Z,53.93
2019-03-13T11:05:54.130Z,52.78
2019-03-13T11:08:26.724Z,53.74
2019-03-13T11:10:59.348Z,52.02
2019-03-13T11:13:31.896Z,52.53
2019-03-13T11:16:04.372Z,50.99
2019-03-13T11:18:37.165Z,51.47
2019-03-13T11:21:09.678Z,51.46
2019-03-13T11:23:41.220Z,51.00
2019-03-13T11:26:14.231Z,50.07
2019-03-13T11:28:47.251Z,50.36
2019-03-13T11:31:20.411Z,51.18
2019-03-13T11:33:53.150Z,49.74
2019-03-13T11:36:26.542Z,50.10
2019-03-13T11:38:59.364Z,50.23
2019-03-13T11:41:32.256Z,50.67
2019-03-13T11:44:05.937Z,51.04
2019-03-13T11:46:38.742Z,51.44
2019-03-13T11:49:11.188Z,50.60
2019-03-13T11:51:43.903Z,50.61
2019-03-13T11:54:16.947Z,48.28
2019-03-13T11:56:49.964Z,49.04
2019-03-13T11:59:22.629Z,49.20
2019-03-13T12:01:56.405Z,49.48
2019-03-13T12:04:29.917Z,48.00
2019-03-13T12:07:03.010Z,48.75
2019-03-13T12:09:35.604Z,48.40
2019-03-13T12:12:08.029Z,49.68
2019-03-13T12:14:41.113Z,46.70
2019-03-13T12:17:14.223Z,46.75
2019-03-13T12:19:46.863Z,47.19
2019-03-13T12:22:19.432Z,47.83
2019-03-13T12:24:50.270Z,47.09
2019-03-13T12:27:22.830Z,46.01
2019-03-13T12:29:55.892Z,46.24
2019-03-13T12:32:29.007Z,45.97
2019-03-13T12:35:02.598Z,46.04
2019-03-13T12:37:35.866Z,47.54
2019-03-13T12:40:11.582Z,46.77
2019-03-13T12:42:44.573Z,46.05
2019-03-13T12:45:17.660Z,47.29
2019-03-13T12:47:50.573Z,45.49
2019-03-13T12:50:22.723Z,45.69
2019-03-13T12:52:54.822Z,45.73
2019-03-13T12:55:26.881Z,46.05
2019-03-13T12:57:57.017Z,45.22
2019-03-13T13:00:29.059Z,45.44
2019-03-13T13:03:01.093Z,45.22
2019-03-13T13:05:33.226Z,44.48
2019-03-13T13:08:05.253Z,45.20
2019-03-13T13:10:37.452Z,42.88
2019-03-13T13:13:09.542Z,42.28
2019-03-13T13:15:41.614Z,42.23
2019-03-13T13:18:13.633Z,43.05
2019-03-13T13:20:44.124Z,42.14
2019-03-13T13:23:14.566Z,42.84
2019-03-13T13:25:45.008Z,41.57
2019-03-13T13:28:15.441Z,41.77
2019-03-13T13:30:45.955Z,43.21
2019-03-13T13:33:18.091Z,44.66
2019-03-13T13:35:48.465Z,42.32
2019-03-13T13:38:18.886Z,40.48
2019-03-13T13:40:49.329Z,41.67
2019-03-13T13:43:19.728Z,42.65
2019-03-13T13:45:53.481Z,42.76
2019-03-13T13:48:23.936Z,42.71
2019-03-13T13:50:54.417Z,42.94
2019-03-13T13:53:31.214Z,42.69
2019-03-13T13:56:03.490Z,42.86
2019-03-13T13:58:34.086Z,43.48
2019-03-13T14:01:04.584Z,42.09
2019-03-13T14:03:34.989Z,42.37
2019-03-13T14:06:05.482Z,42.99
2019-03-13T14:08:35.851Z,42.78
2019-03-13T14:11:06.390Z,41.52
2019-03-13T14:13:36.749Z,41.69
2019-03-13T14:16:07.269Z,41.43
2019-03-13T14:18:37.636Z,41.84
2019-03-13T14:21:08.110Z,40.99
2019-03-13T14:23:38.559Z,41.90
2019-03-13T14:26:10.088Z,42.42
2019-03-13T14:28:40.602Z,41.61
2019-03-13T14:31:11.041Z,41.66
2019-03-13T14:33:41.512Z,41.46
2019-03-13T14:36:11.991Z,42.06
2019-03-13T14:38:43.387Z,41.69
2019-03-13T14:41:14.227Z,42.42
2019-03-13T14:43:45.706Z,41.81
2019-03-13T14:46:17.647Z,41.76
2019-03-13T14:48:49.074Z,42.64
2019-03-13T14:51:20.366Z,42.34
2019-03-13T14:53:51.022Z,44.12
2019-03-13T14:56:22.247Z,43.45
2019-03-13T14:58:53.446Z,44.94
2019-03-13T15:01:25.767Z,44.18
2019-03-13T15:03:57.277Z,43.86
2019-03-13T15:06:29.326Z,43.83
2019-03-13T15:09:00.037Z,43.90
2019-03-13T15:11:30.444Z,42.81
2019-03-13T15:14:01.011Z,44.14
2019-03-13T15:16:39.481Z,44.36
2019-03-13T15:19:10.087Z,45.44
2019-03-13T15:21:40.664Z,45.96
2019-03-13T15:24:11.286Z,43.80
2019-03-13T15:26:41.735Z,45.26
2019-03-13T15:29:12.109Z,45.10
2019-03-13T15:31:42.498Z,45.19
2019-03-13T15:34:13.049Z,45.40
2019-03-13T15:36:43.557Z,45.94
2019-03-13T15:39:14.014Z,45.46
2019-03-13T15:41:44.454Z,45.41
2019-03-13T15:44:14.953Z,45.62
2019-03-13T15:46:45.332Z,45.51
2019-03-13T15:49:15.704Z,46.41
2019-03-13T15:51:46.438Z,46.85
2019-03-13T15:54:16.920Z,46.30
2019-03-13T15:56:47.358Z,46.23
2019-03-13T15:59:17.876Z,46.90
2019-03-13T16:01:48.333Z,46.20
2019-03-13T16:04:18.796Z,47.24
2019-03-13T16:06:50.970Z,46.36
2019-03-13T16:09:22.128Z,46.58
2019-03-13T16:11:52.653Z,46.33
2019-03-13T16:14:23.091Z,46.56
2019-03-13T16:16:53.491Z,46.20
2019-03-13T16:19:24.925Z,46.68
2019-03-13T16:21:55.507Z,46.77
2019-03-13T16:24:26.233Z,46.74
2019-03-13T16:26:56.645Z,46.81
2019-03-13T16:29:31.034Z,47.14
2019-03-13T16:32:03.338Z,47.14
2019-03-13T16:34:35.298Z,46.95
2019-03-13T16:37:06.187Z,47.81
2019-03-13T16:39:37.057Z,47.31
2019-03-13T16:42:07.787Z,48.01
2019-03-13T16:44:39.378Z,49.07
2019-03-13T16:47:10.608Z,49.73
2019-03-13T16:49:41.715Z,49.54
2019-03-13T16:52:12.346Z,50.90
2019-03-13T16:54:42.987Z,50.57
2019-03-13T16:57:14.087Z,50.93
2019-03-13T16:59:45.629Z,51.19
2019-03-13T17:02:16.159Z,51.05
2019-03-13T17:04:47.683Z,51.86
2019-03-13T17:07:18.207Z,51.96
2019-03-13T17:09:48.669Z,52.37
2019-03-13T17:12:19.186Z,52.63
2019-03-13T17:14:52.811Z,52.76
2019-03-13T17:17:23.698Z,52.26
2019-03-13T17:19:54.886Z,52.50
2019-03-13T17:22:26.165Z,53.14
2019-03-13T17:24:57.100Z,51.68
2019-03-13T17:27:28.228Z,52.00
2019-03-13T17:29:59.108Z,51.92
2019-03-13T17:32:30.305Z,52.48
2019-03-13T17:35:01.166Z,52.01
2019-03-13T17:37:40.349Z,52.25
2019-03-13T17:40:15.466Z,52.29
2019-03-13T17:42:45.977Z,51.81
2019-03-13T17:45:18.716Z,52.65
2019-03-13T17:47:49.469Z,52.25
2019-03-13T17:50:22.436Z,51.51
2019-03-13T17:52:55.907Z,51.55
2019-03-13T17:55:27.328Z,51.12
2019-03-13T17:57:57.806Z,50.95
2019-03-13T18:00:32.022Z,50.80
2019-03-13T18:03:02.583Z,50.64
2019-03-13T18:05:33.946Z,50.66
2019-03-13T18:08:05.631Z,51.19
2019-03-13T18:10:36.192Z,52.27
2019-03-13T18:13:06.696Z,52.29
2019-03-13T18:15:37.278Z,52.18
2019-03-13T18:18:07.817Z,52.67
2019-03-13T18:20:38.505Z,53.36
2019-03-13T18:23:09.127Z,53.70
2019-03-13T18:25:40.502Z,54.03
2019-03-13T18:28:11.279Z,53.47
2019-03-13T18:30:43.123Z,53.80
2019-03-13T18:33:16.044Z,54.18
2019-03-13T18:35:47.526Z,54.57
2019-03-13T18:38:18.643Z,54.35
2019-03-13T18:40:58.920Z,55.17
2019-03-13T18:43:37.493Z,55.13
2019-03-13T18:46:10.642Z,55.32
2019-03-13T18:48:42.584Z,55.62
2019-03-13T18:51:14.143Z,55.89
2019-03-13T18:53:46.163Z,55.63
2019-03-13T18:56:24.743Z,55.87
2019-03-13T18:58:56.202Z,55.36
2019-03-13T19:01:27.913Z,55.18
2019-03-13T19:04:04.800Z,55.40
2019-03-13T19:06:38.401Z,55.70
2019-03-13T19:09:10.374Z,55.67
2019-03-13T19:11:44.142Z,55.86
2019-03-13T19:14:15.141Z,55.01
2019-03-13T19:16:46.349Z,55.85
2019-03-13T19:19:18.081Z,55.51
2019-03-13T19:21:49.983Z,55.33
2019-03-13T19:24:21.023Z,55.50
2019-03-13T19:26:53.731Z,55.55
2019-03-13T19:29:24.102Z,55.69
2019-03-13T19:31:54.587Z,55.48
2019-03-13T19:34:25.302Z,55.16
2019-03-13T19:36:55.810Z,55.75
2019-03-13T19:39:26.444Z,55.69
2019-03-13T19:41:57.145Z,55.37
2019-03-13T19:44:28.483Z,55.56
2019-03-13T19:46:59.125Z,55.92
2019-03-13T19:49:29.589Z,55.66
2019-03-13T19:52:00.082Z,55.63
2019-03-13T19:54:31.583Z,55.41
2019-03-13T19:57:02.787Z,55.46
2019-03-13T19:59:36.923Z,55.28
2019-03-13T20:02:10.094Z,56.09
2019-03-13T20:04:47.414Z,55.37
2019-03-13T20:07:14.201Z,55.64
2019-03-13T20:09:45.263Z,55.70
2019-03-13T20:12:27.151Z,55.58
2019-03-13T20:14:59.851Z,55.42
2019-03-13T20:17:31.504Z,56.21
2019-03-13T20:20:02.300Z,55.35
2019-03-13T20:22:33.920Z,55.42
2019-03-13T20:25:07.822Z,55.06
2019-03-13T20:27:39.352Z,55.28
2019-03-13T20:30:17.525Z,54.69
2019-03-13T20:32:48.098Z,54.96
2019-03-13T20:35:18.537Z,54.09
2019-03-13T20:37:50.485Z,54.03
2019-03-13T20:40:24.025Z,54.26
2019-03-13T20:45:52.440Z,53.83
2019-03-13T20:48:24.758Z,54.10
2019-03-13T20:50:56.934Z,53.87
2019-03-13T20:53:28.696Z,54.26
2019-03-13T20:55:59.750Z,53.79
2019-03-13T20:58:32.907Z,54.08
2019-03-13T21:01:05.426Z,54.42
2019-03-13T21:03:37.016Z,54.56
2019-03-13T21:06:07.786Z,53.84
2019-03-13T21:08:39.154Z,54.40
2019-03-13T21:11:11.342Z,54.25
2019-03-13T21:13:43.762Z,54.69
2019-03-13T21:16:15.042Z,54.36
2019-03-13T21:18:46.510Z,54.13
2019-03-13T21:21:17.992Z,54.45
2019-03-13T21:23:49.547Z,54.77
2019-03-13T21:26:24.610Z,54.63
2019-03-13T21:28:56.852Z,54.15
2019-03-13T21:31:28.617Z,54.79
2019-03-13T21:34:00.558Z,54.60
2019-03-13T21:36:32.747Z,54.88
2019-03-13T21:39:05.508Z,54.75
2019-03-13T21:41:39.548Z,54.76
2019-03-13T21:44:11.035Z,55.12
2019-03-13T21:46:42.452Z,55.01
2019-03-13T21:49:14.526Z,54.85
2019-03-13T21:51:46.220Z,54.83
2019-03-13T21:54:17.547Z,54.35
2019-03-13T21:56:50.049Z,54.66
2019-03-13T21:59:22.229Z,54.75
2019-03-13T22:01:52.973Z,55.28
2019-03-13T22:04:25.176Z,55.18
2019-03-13T22:06:57.830Z,55.27
2019-03-13T22:09:29.384Z,55.79
2019-03-13T22:12:00.867Z,54.79
2019-03-13T22:14:33.024Z,55.22
2019-03-13T22:17:03.918Z,55.05
2019-03-13T22:19:34.865Z,54.74
2019-03-13T22:22:06.301Z,54.54
2019-03-13T22:24:37.463Z,53.78
2019-03-13T22:27:09.362Z,53.80
2019-03-13T22:29:40.582Z,53.38
2019-03-13T22:32:13.410Z,53.23
2019-03-13T22:34:46.503Z,52.73
2019-03-13T22:37:17.637Z,53.41
2019-03-13T22:39:50.185Z,53.17
2019-03-13T22:42:21.812Z,53.38
2019-03-13T22:44:53.331Z,52.96
2019-03-13T22:47:24.984Z,53.34
2019-03-13T22:49:57.142Z,52.89
2019-03-13T22:52:28.862Z,53.78
2019-03-13T22:55:00.891Z,53.42
2019-03-13T22:57:32.061Z,53.89
2019-03-13T23:00:02.971Z,53.38
2019-03-13T23:02:34.532Z,53.55
2019-03-13T23:05:06.124Z,53.92
2019-03-13T23:07:37.862Z,53.80
2019-03-13T23:10:12.204Z,54.41
2019-03-13T23:12:45.102Z,54.32
2019-03-13T23:15:16.442Z,54.36
2019-03-13T23:17:47.824Z,54.95
2019-03-13T23:20:20.178Z,54.93
2019-03-13T23:22:51.422Z,54.93
2019-03-13T23:25:22.905Z,55.04
2019-03-13T23:27:55.342Z,55.07
2019-03-13T23:30:27.204Z,55.08
2019-03-13T23:32:58.449Z,55.73
2019-03-13T23:35:29.897Z,54.85
2019-03-13T23:38:02.666Z,55.79
2019-03-13T23:40:34.052Z,55.48
2019-03-13T23:43:05.686Z,55.65
2019-03-13T23:45:37.272Z,56.06
2019-03-13T23:48:09.908Z,55.50
2019-03-13T23:50:42.284Z,55.94
2019-03-13T23:53:13.210Z,56.16
2019-03-13T23:55:44.464Z,55.78
2019-03-13T23:58:15.784Z,56.18
